createdAt,value
2022-09-09T00:00:55.303Z,2.00
2022-09-09T00:03:27.694Z,2.13
2022-09-09T00:06:08.388Z,2.00
2022-09-09T00:08:56.571Z,1.90
2022-09-09T00:11:31.477Z,2.05
2022-09-09T00:14:00.758Z,2.13
2022-09-09T00:16:32.706Z,2.05
2022-09-09T00:19:05.983Z,1.90
2022-09-09T00:21:37.104Z,3.25
2022-09-09T00:24:28.962Z,2.80
2022-09-09T00:27:02.170Z,2.80
2022-09-09T00:29:44.843Z,2.25
2022-09-09T00:32:19.414Z,2.33
2022-09-09T00:34:52.909Z,2.15
2022-09-09T00:37:20.712Z,1.90
2022-09-09T00:39:52.848Z,1.85
2022-09-09T00:42:39.491Z,2.13
2022-09-09T00:45:15.015Z,2.15
2022-09-09T00:47:45.308Z,2.25
2022-09-09T00:50:25.727Z,1.63
2022-09-09T00:53:11.536Z,1.77
2022-09-09T00:55:46.672Z,2.33
2022-09-09T00:58:13.108Z,1.83
2022-09-09T01:00:50.003Z,2.75
2022-09-09T01:03:34.480Z,1.80
2022-09-09T01:06:16.990Z,1.90
2022-09-09T01:09:04.590Z,1.80
2022-09-09T01:11:35.950Z,1.60
2022-09-09T01:14:15.136Z,1.80
2022-09-09T01:16:42.941Z,1.70
2022-09-09T01:19:11.788Z,1.70
2022-09-09T01:21:47.773Z,1.63
2022-09-09T01:24:27.585Z,1.80
2022-09-09T01:26:58.063Z,1.70
2022-09-09T01:29:24.374Z,1.65
2022-09-09T01:31:56.528Z,1.90
2022-09-09T01:34:25.538Z,1.70
2022-09-09T01:37:07.535Z,1.67
2022-09-09T01:39:35.596Z,1.90
2022-09-09T01:42:02.802Z,1.77
2022-09-09T01:44:29.367Z,1.60
2022-09-09T01:46:55.727Z,1.60
2022-09-09T01:49:22.178Z,1.77
2022-09-09T01:51:54.445Z,1.80
2022-09-09T01:54:21.874Z,1.60
2022-09-09T01:56:59.811Z,1.80
2022-09-09T01:59:32.118Z,1.67
2022-09-09T02:02:02.161Z,1.40
2022-09-09T02:04:37.126Z,1.70
2022-09-09T02:07:03.691Z,1.40
2022-09-09T02:09:31.127Z,1.40
2022-09-09T02:12:04.907Z,1.77
2022-09-09T02:14:41.331Z,1.50
2022-09-09T02:17:12.057Z,1.50
2022-09-09T02:19:43.822Z,1.70
2022-09-09T02:22:10.136Z,1.33
2022-09-09T02:24:40.818Z,1.60
2022-09-09T02:27:09.542Z,1.20
2022-09-09T02:29:42.095Z,1.40
2022-09-09T02:32:21.641Z,1.20
2022-09-09T02:34:55.136Z,1.20
2022-09-09T02:37:23.371Z,1.50
2022-09-09T02:39:49.839Z,1.20
2022-09-09T02:42:16.163Z,1.33
2022-09-09T02:44:42.819Z,1.35
2022-09-09T02:47:35.348Z,1.60
2022-09-09T02:50:15.080Z,1.27
2022-09-09T02:53:08.524Z,1.57
2022-09-09T02:55:49.210Z,1.33
2022-09-09T02:58:18.042Z,1.50
2022-09-09T03:00:46.281Z,1.25
2022-09-09T03:03:12.685Z,1.30
2022-09-09T03:05:39.492Z,1.20
2022-09-09T03:08:06.440Z,1.08
2022-09-09T03:10:33.743Z,1.20
2022-09-09T03:13:00.038Z,1.23
2022-09-09T03:15:29.894Z,1.37
2022-09-09T03:17:57.814Z,1.50
2022-09-09T03:20:26.969Z,1.10
2022-09-09T03:22:57.410Z,1.38
2022-09-09T03:25:27.147Z,1.08
2022-09-09T03:27:55.701Z,1.10
2022-09-09T03:30:25.830Z,1.17
2022-09-09T03:32:52.566Z,1.38
2022-09-09T03:35:19.121Z,1.30
2022-09-09T03:37:45.454Z,1.33
2022-09-09T03:40:12.291Z,1.13
2022-09-09T03:42:39.585Z,1.40
2022-09-09T03:45:07.786Z,1.30
2022-09-09T03:47:34.140Z,1.20
2022-09-09T03:50:00.441Z,1.20
2022-09-09T03:52:27.275Z,1.30
2022-09-09T03:54:54.501Z,1.40
2022-09-09T03:57:21.099Z,1.30
2022-09-09T03:59:47.451Z,1.40
2022-09-09T04:02:13.795Z,1.60
2022-09-09T04:04:40.532Z,1.40
2022-09-09T04:07:09.430Z,1.33
2022-09-09T04:09:35.805Z,1.43
2022-09-09T04:12:02.264Z,1.47
2022-09-09T04:14:29.608Z,1.40
2022-09-09T04:16:58.361Z,1.50
2022-09-09T04:19:24.892Z,1.87
2022-09-09T04:21:52.485Z,1.50
2022-09-09T04:24:18.908Z,1.40
2022-09-09T04:26:46.326Z,1.47
2022-09-09T04:29:12.612Z,1.40
2022-09-09T04:31:42.748Z,1.33
2022-09-09T04:34:10.122Z,2.05
2022-09-09T04:36:37.167Z,1.73
2022-09-09T04:39:03.630Z,1.60
2022-09-09T04:41:30.791Z,1.30
2022-09-09T04:43:57.095Z,2.07
2022-09-09T04:46:24.427Z,1.40
2022-09-09T04:48:51.114Z,1.23
2022-09-09T04:51:17.743Z,1.33
2022-09-09T04:53:44.338Z,1.20
2022-09-09T04:56:13.285Z,1.40
2022-09-09T04:58:40.767Z,1.13
2022-09-09T05:01:08.702Z,1.73
2022-09-09T05:03:35.313Z,1.10
2022-09-09T05:06:21.271Z,1.20
2022-09-09T05:08:48.351Z,1.30
2022-09-09T05:11:26.649Z,1.50
2022-09-09T05:13:53.767Z,1.27
2022-09-09T05:16:21.080Z,1.17
2022-09-09T05:18:47.869Z,1.40
2022-09-09T05:21:15.352Z,1.47
2022-09-09T05:23:41.864Z,1.33
2022-09-09T05:26:16.618Z,1.10
2022-09-09T05:28:43.661Z,1.00
2022-09-09T05:31:12.209Z,0.93
2022-09-09T05:33:41.485Z,1.10
2022-09-09T05:36:09.942Z,1.10
2022-09-09T05:38:36.766Z,1.20
2022-09-09T05:41:03.869Z,1.25
2022-09-09T05:43:30.442Z,1.03
2022-09-09T05:46:02.372Z,1.10
2022-09-09T05:48:30.629Z,1.43
2022-09-09T05:50:56.970Z,1.23
2022-09-09T05:53:23.281Z,1.40
2022-09-09T05:55:49.800Z,1.20
2022-09-09T05:58:17.743Z,1.37
2022-09-09T06:00:45.092Z,1.25
2022-09-09T06:03:12.683Z,1.60
2022-09-09T06:05:39.260Z,1.40
2022-09-09T06:08:05.610Z,1.43
2022-09-09T06:10:31.923Z,1.40
2022-09-09T06:12:58.249Z,1.45
2022-09-09T06:15:24.549Z,1.10
2022-09-09T06:17:55.898Z,1.20
2022-09-09T06:20:22.839Z,1.15
2022-09-09T06:22:49.612Z,1.02
2022-09-09T06:25:15.903Z,1.50
2022-09-09T06:27:42.949Z,1.50
2022-09-09T06:30:10.622Z,1.15
2022-09-09T06:32:38.703Z,1.13
2022-09-09T06:35:05.570Z,1.30
2022-09-09T06:37:32.040Z,1.40
2022-09-09T06:39:58.534Z,1.17
2022-09-09T06:42:24.871Z,1.30
2022-09-09T06:44:51.251Z,1.27
2022-09-09T06:47:17.535Z,1.00
2022-09-09T06:49:48.201Z,1.45
2022-09-09T06:52:14.835Z,1.15
2022-09-09T06:54:41.166Z,1.23
2022-09-09T06:57:33.778Z,1.00
2022-09-09T06:59:54.416Z,0.90
2022-09-09T07:02:21.004Z,1.20
2022-09-09T07:04:47.681Z,1.30
2022-09-09T07:07:16.287Z,1.50
2022-09-09T07:09:42.571Z,1.30
2022-09-09T07:12:08.874Z,1.50
2022-09-09T07:14:37.018Z,1.48
2022-09-09T07:17:03.318Z,1.63
2022-09-09T07:19:29.603Z,1.27
2022-09-09T07:21:55.933Z,1.67
2022-09-09T07:24:22.230Z,1.20
2022-09-09T07:26:48.737Z,1.20
2022-09-09T07:29:18.506Z,1.65
2022-09-09T07:31:46.841Z,1.65
2022-09-09T07:34:13.166Z,1.27
2022-09-09T07:36:40.476Z,1.65
2022-09-09T07:39:09.845Z,1.90
2022-09-09T07:41:44.614Z,1.60
2022-09-09T07:44:13.805Z,1.80
2022-09-09T07:46:40.620Z,2.13
2022-09-09T07:49:07.082Z,1.70
2022-09-09T07:51:35.991Z,2.03
2022-09-09T07:54:07.338Z,2.22
2022-09-09T07:56:34.278Z,2.08
2022-09-09T07:59:00.803Z,2.40
2022-09-09T08:01:30.726Z,1.90
2022-09-09T08:04:02.283Z,1.90
2022-09-09T08:06:31.202Z,2.00
2022-09-09T08:08:57.570Z,1.80
2022-09-09T08:11:25.727Z,1.98
2022-09-09T08:13:54.835Z,2.22
2022-09-09T08:16:24.986Z,2.13
2022-09-09T08:18:52.360Z,2.50
2022-09-09T08:21:29.315Z,2.22
2022-09-09T08:23:58.229Z,2.15
2022-09-09T08:26:27.584Z,2.20
2022-09-09T08:28:55.555Z,2.10
2022-09-09T08:33:57.190Z,2.35
2022-09-09T08:36:26.466Z,2.45
2022-09-09T08:38:55.373Z,2.13
2022-09-09T08:41:38.919Z,2.10
2022-09-09T08:44:15.690Z,1.92
2022-09-09T08:46:58.780Z,2.10
2022-09-09T08:49:46.615Z,2.47
2022-09-09T08:52:23.262Z,2.65
2022-09-09T08:54:52.610Z,2.17
2022-09-09T08:57:27.575Z,1.90
2022-09-09T08:59:56.190Z,2.55
2022-09-09T09:02:27.711Z,2.35
2022-09-09T09:05:01.714Z,2.30
2022-09-09T09:07:54.415Z,2.40
2022-09-09T09:10:49.557Z,2.00
2022-09-09T09:13:19.376Z,1.90
2022-09-09T09:15:49.803Z,2.20
2022-09-09T09:18:17.559Z,1.70
2022-09-09T09:20:52.758Z,1.70
2022-09-09T09:23:25.755Z,1.58
2022-09-09T09:25:58.549Z,1.50
2022-09-09T09:28:26.622Z,1.30
2022-09-09T09:31:02.482Z,1.55
2022-09-09T09:33:36.333Z,1.45
2022-09-09T09:36:04.137Z,1.42
2022-09-09T09:41:19.213Z,1.80
2022-09-09T09:43:54.662Z,1.70
2022-09-09T09:46:24.651Z,1.60
2022-09-09T09:49:06.292Z,1.60
2022-09-09T09:51:33.494Z,1.80
2022-09-09T09:54:17.013Z,1.67
2022-09-09T09:56:44.423Z,1.80
2022-09-09T09:59:38.832Z,2.33
2022-09-09T10:02:27.551Z,1.58
2022-09-09T10:05:06.428Z,1.48
2022-09-09T10:07:34.195Z,1.67
2022-09-09T10:10:00.572Z,2.25
2022-09-09T10:12:29.771Z,1.90
2022-09-09T10:15:16.776Z,1.85
2022-09-09T10:18:02.749Z,1.67
2022-09-09T10:20:46.859Z,1.42
2022-09-09T10:23:26.243Z,1.90
2022-09-09T10:25:56.555Z,1.55
2022-09-09T10:28:59.069Z,1.50
2022-09-09T10:31:40.063Z,1.55
2022-09-09T10:34:12.217Z,1.50
2022-09-09T10:36:43.472Z,1.60
2022-09-09T10:39:22.809Z,1.60
2022-09-09T10:42:10.190Z,1.40
2022-09-09T10:44:55.703Z,1.55
2022-09-09T10:47:36.326Z,1.20
2022-09-09T10:50:38.113Z,1.08
2022-09-09T10:54:01.155Z,1.02
2022-09-09T10:56:27.843Z,1.00
2022-09-09T10:59:06.822Z,1.00
2022-09-09T11:01:45.709Z,1.02
2022-09-09T11:04:20.251Z,1.00
2022-09-09T11:06:49.788Z,0.98
2022-09-09T11:09:21.126Z,1.27
2022-09-09T11:11:55.147Z,0.98
2022-09-09T11:14:41.443Z,0.90
2022-09-09T11:17:12.854Z,0.93
2022-09-09T11:19:41.597Z,1.08
2022-09-09T11:22:26.882Z,0.95
2022-09-09T11:25:05.518Z,0.90
2022-09-09T11:27:51.963Z,0.90
2022-09-09T11:30:51.178Z,1.10
2022-09-09T11:33:44.194Z,1.08
2022-09-09T11:36:29.338Z,1.00
2022-09-09T11:39:32.739Z,0.75
2022-09-09T11:42:14.233Z,0.93
2022-09-09T11:44:41.972Z,0.98
2022-09-09T11:47:37.730Z,0.90
2022-09-09T11:50:15.916Z,1.10
2022-09-09T11:52:46.847Z,0.88
2022-09-09T11:55:37.705Z,1.10
2022-09-09T11:58:17.426Z,1.17
2022-09-09T12:00:49.341Z,1.10
2022-09-09T12:03:47.118Z,0.95
2022-09-09T12:06:19.197Z,1.13
2022-09-09T12:08:48.713Z,1.00
2022-09-09T12:11:27.850Z,0.80
2022-09-09T12:13:56.066Z,1.52
2022-09-09T12:16:31.907Z,1.20
2022-09-09T12:19:26.909Z,1.10
2022-09-09T12:22:06.520Z,1.13
2022-09-09T12:25:00.929Z,1.08
2022-09-09T12:27:37.939Z,1.10
2022-09-09T12:30:16.291Z,1.10
2022-09-09T12:32:45.429Z,1.10
2022-09-09T12:35:16.002Z,0.90
2022-09-09T12:37:51.054Z,1.00
2022-09-09T12:40:27.038Z,0.98
2022-09-09T12:42:53.643Z,1.00
2022-09-09T12:45:27.672Z,1.00
2022-09-09T12:47:58.858Z,0.55
2022-09-09T12:50:30.295Z,0.73
2022-09-09T12:53:05.497Z,0.80
2022-09-09T12:55:34.480Z,0.60
2022-09-09T12:58:05.312Z,0.98
2022-09-09T13:00:32.127Z,0.80
2022-09-09T13:03:00.207Z,0.80
2022-09-09T13:05:36.436Z,0.90
2022-09-09T13:08:03.979Z,0.70
2022-09-09T13:10:36.537Z,0.85
2022-09-09T13:13:24.380Z,0.90
2022-09-09T13:15:52.624Z,0.88
2022-09-09T13:18:22.697Z,0.90
2022-09-09T13:20:49.738Z,0.95
2022-09-09T13:23:17.919Z,0.88
2022-09-09T13:25:57.227Z,0.70
2022-09-09T13:28:25.995Z,0.70
2022-09-09T13:31:03.567Z,0.80
2022-09-09T13:33:40.144Z,0.77
2022-09-09T13:36:11.282Z,2.35
2022-09-09T13:38:40.053Z,1.05
2022-09-09T13:41:08.745Z,0.73
2022-09-09T13:43:43.426Z,0.50
2022-09-09T13:46:31.401Z,0.63
2022-09-09T13:49:02.115Z,0.90
2022-09-09T13:51:38.682Z,0.60
2022-09-09T13:54:10.388Z,0.80
2022-09-09T13:56:37.902Z,0.80
2022-09-09T13:59:06.343Z,0.63
2022-09-09T14:01:33.928Z,0.88
2022-09-09T14:04:00.278Z,0.82
2022-09-09T14:06:26.747Z,0.80
2022-09-09T14:08:53.160Z,0.80
2022-09-09T14:11:20.114Z,0.73
2022-09-09T14:13:46.399Z,0.90
2022-09-09T14:16:12.768Z,0.77
2022-09-09T14:18:39.805Z,0.60
2022-09-09T14:21:06.126Z,0.80
2022-09-09T14:23:33.175Z,0.80
2022-09-09T14:25:59.470Z,0.60
2022-09-09T14:28:52.059Z,0.68
2022-09-09T14:31:14.390Z,0.73
2022-09-09T14:33:41.228Z,1.00
2022-09-09T14:36:07.552Z,0.75
2022-09-09T14:38:36.110Z,1.00
2022-09-09T14:41:05.547Z,0.70
2022-09-09T14:43:33.345Z,0.70
2022-09-09T14:46:07.420Z,0.90
2022-09-09T14:48:34.535Z,0.77
2022-09-09T14:51:09.179Z,0.90
2022-09-09T14:53:35.700Z,0.90
2022-09-09T14:56:10.603Z,0.90
2022-09-09T14:58:38.743Z,0.98
2022-09-09T15:01:06.775Z,0.73
2022-09-09T15:03:33.998Z,1.10
2022-09-09T15:06:09.505Z,0.95
2022-09-09T15:08:41.687Z,0.73
2022-09-09T15:11:09.963Z,0.80
2022-09-09T15:13:38.111Z,0.80
2022-09-09T15:16:06.697Z,1.10
2022-09-09T15:18:34.037Z,0.90
2022-09-09T15:21:02.290Z,0.70
2022-09-09T15:23:28.582Z,0.90
2022-09-09T15:25:56.606Z,1.00
2022-09-09T15:28:23.175Z,1.15
2022-09-09T15:30:53.824Z,0.80
2022-09-09T15:33:21.315Z,0.80
2022-09-09T15:35:48.385Z,0.77
2022-09-09T15:38:16.917Z,0.90
2022-09-09T15:40:44.039Z,1.10
2022-09-09T15:43:11.532Z,0.95
2022-09-09T15:45:38.071Z,0.85
2022-09-09T15:48:05.087Z,1.00
2022-09-09T15:50:33.219Z,0.80
2022-09-09T15:53:00.374Z,0.80
2022-09-09T15:55:26.680Z,0.98
2022-09-09T15:57:55.940Z,0.80
2022-09-09T16:00:23.601Z,1.20
2022-09-09T16:02:49.962Z,0.80
2022-09-09T16:05:16.754Z,1.15
2022-09-09T16:07:43.347Z,0.70
2022-09-09T16:10:10.377Z,0.85
2022-09-09T16:12:36.716Z,1.10
2022-09-09T16:15:03.217Z,1.10
2022-09-09T16:17:29.570Z,1.50
2022-09-09T16:19:56.078Z,0.90
2022-09-09T16:22:22.894Z,1.00
2022-09-09T16:24:49.538Z,1.40
2022-09-09T16:27:15.850Z,1.23
2022-09-09T16:29:42.142Z,1.40
2022-09-09T16:32:09.213Z,1.00
2022-09-09T16:34:35.507Z,1.20
2022-09-09T16:37:02.934Z,1.00
2022-09-09T16:39:29.303Z,0.93
2022-09-09T16:41:55.618Z,1.15
2022-09-09T16:44:22.019Z,1.25
2022-09-09T16:46:49.614Z,1.30
2022-09-09T16:49:16.718Z,1.40
2022-09-09T16:51:45.339Z,1.23
2022-09-09T16:54:12.160Z,1.30
2022-09-09T16:56:42.010Z,0.98
2022-09-09T16:59:27.379Z,1.25
2022-09-09T17:01:54.241Z,1.52
2022-09-09T17:04:24.701Z,0.93
2022-09-09T17:06:53.379Z,1.10
2022-09-09T17:09:20.852Z,1.10
2022-09-09T17:11:48.280Z,1.13
2022-09-09T17:14:17.166Z,0.90
2022-09-09T17:16:43.645Z,1.40
2022-09-09T17:19:10.373Z,1.20
2022-09-09T17:21:42.774Z,0.88
2022-09-09T17:24:22.637Z,0.95
2022-09-09T17:26:48.950Z,1.00
2022-09-09T17:29:15.312Z,1.10
2022-09-09T17:31:42.145Z,1.52
2022-09-09T17:34:09.387Z,1.10
2022-09-09T17:36:37.401Z,1.95
2022-09-09T17:39:04.402Z,2.03
2022-09-09T17:41:35.782Z,1.67
2022-09-09T17:44:03.595Z,2.40
2022-09-09T17:46:35.843Z,1.60
2022-09-09T17:49:05.419Z,1.77
2022-09-09T17:51:32.671Z,1.83
2022-09-09T17:54:05.001Z,2.67
2022-09-09T17:56:33.167Z,2.40
2022-09-09T17:59:01.107Z,2.90
2022-09-09T18:01:29.868Z,1.92
2022-09-09T18:03:57.338Z,1.55
2022-09-09T18:06:27.554Z,1.45
2022-09-09T18:08:59.042Z,1.50
2022-09-09T18:11:31.890Z,1.33
2022-09-09T18:14:02.801Z,1.20
2022-09-09T18:16:35.811Z,1.60
2022-09-09T18:19:06.813Z,1.73
2022-09-09T18:21:33.843Z,1.10
2022-09-09T18:24:02.405Z,1.30
2022-09-09T18:26:28.795Z,1.40
2022-09-09T18:28:57.030Z,1.98
2022-09-09T18:31:27.040Z,1.20
2022-09-09T18:33:54.244Z,1.40
2022-09-09T18:36:38.614Z,1.15
2022-09-09T18:39:06.160Z,1.33
2022-09-09T18:41:34.875Z,1.00
2022-09-09T18:44:04.223Z,1.00
2022-09-09T18:46:32.922Z,0.87
2022-09-09T18:48:59.310Z,0.90
2022-09-09T18:51:28.099Z,0.97
2022-09-09T18:53:58.079Z,0.80
2022-09-09T18:56:24.764Z,1.08
2022-09-09T18:58:55.649Z,1.40
2022-09-09T19:01:22.660Z,1.27
2022-09-09T19:03:49.103Z,1.50
2022-09-09T19:06:18.107Z,1.10
2022-09-09T19:08:45.852Z,1.33
2022-09-09T19:11:16.144Z,2.40
2022-09-09T19:13:43.543Z,1.17
2022-09-09T19:16:12.080Z,1.30
2022-09-09T19:18:39.458Z,1.35
2022-09-09T19:21:22.072Z,1.70
2022-09-09T19:23:56.147Z,1.20
2022-09-09T19:26:22.683Z,1.00
2022-09-09T19:28:50.023Z,0.80
2022-09-09T19:31:18.214Z,1.00
2022-09-09T19:33:47.024Z,1.10
2022-09-09T19:36:17.011Z,0.90
2022-09-09T19:38:43.716Z,0.83
2022-09-09T19:41:13.484Z,0.67
2022-09-09T19:43:40.339Z,0.80
2022-09-09T19:46:09.011Z,0.60
2022-09-09T19:48:38.756Z,0.73
2022-09-09T19:51:06.731Z,0.83
2022-09-09T19:53:35.907Z,0.70
2022-09-09T19:56:05.765Z,0.73
2022-09-09T19:58:34.121Z,0.80
2022-09-09T20:01:11.353Z,0.70
2022-09-09T20:03:39.412Z,0.70
2022-09-09T20:06:08.269Z,0.60
2022-09-09T20:08:35.585Z,0.70
2022-09-09T20:11:02.492Z,0.70
2022-09-09T20:13:30.222Z,0.70
2022-09-09T20:16:01.218Z,0.73
2022-09-09T20:18:32.342Z,0.70
2022-09-09T20:21:04.466Z,0.67
2022-09-09T20:23:31.127Z,0.60
2022-09-09T20:26:02.801Z,1.87
2022-09-09T20:28:29.722Z,1.17
2022-09-09T20:30:56.092Z,1.20
2022-09-09T20:33:22.439Z,0.93
2022-09-09T20:35:48.955Z,0.87
2022-09-09T20:38:15.274Z,1.43
2022-09-09T20:40:42.075Z,1.00
2022-09-09T20:43:12.390Z,1.20
2022-09-09T20:45:38.995Z,0.70
2022-09-09T20:48:06.997Z,0.80
2022-09-09T20:50:36.625Z,0.90
2022-09-09T20:53:03.762Z,0.70
2022-09-09T20:55:34.255Z,0.77
2022-09-09T20:58:00.939Z,0.60
2022-09-09T21:00:29.846Z,0.60
2022-09-09T21:02:56.427Z,0.80
2022-09-09T21:05:24.252Z,0.80
2022-09-09T21:07:50.766Z,0.73
2022-09-09T21:10:18.063Z,0.70
2022-09-09T21:12:44.972Z,0.90
2022-09-09T21:15:11.254Z,0.90
2022-09-09T21:17:40.063Z,0.80
2022-09-09T21:20:07.052Z,0.70
2022-09-09T21:22:33.405Z,0.80
2022-09-09T21:24:59.702Z,0.97
2022-09-09T21:27:25.983Z,1.10
2022-09-09T21:29:52.317Z,0.90
2022-09-09T21:32:18.599Z,0.73
2022-09-09T21:34:45.760Z,0.70
2022-09-09T21:37:12.062Z,0.67
2022-09-09T21:39:38.411Z,0.80
2022-09-09T21:42:04.791Z,0.70
2022-09-09T21:44:31.103Z,1.50
2022-09-09T21:46:57.382Z,0.90
2022-09-09T21:49:23.687Z,1.10
2022-09-09T21:51:50.789Z,0.80
2022-09-09T21:54:18.571Z,0.87
2022-09-09T21:56:44.862Z,0.90
2022-09-09T21:59:11.720Z,0.80
2022-09-09T22:01:40.187Z,0.70
2022-09-09T22:04:06.575Z,0.80
2022-09-09T22:06:32.921Z,0.80
2022-09-09T22:08:59.792Z,1.00
2022-09-09T22:11:26.100Z,0.80
2022-09-09T22:13:55.862Z,0.80
2022-09-09T22:16:23.282Z,0.87
2022-09-09T22:18:55.229Z,0.80
2022-09-09T22:21:22.707Z,1.00
2022-09-09T22:23:53.675Z,0.70
2022-09-09T22:26:20.080Z,0.97
2022-09-09T22:28:47.006Z,0.90
2022-09-09T22:31:13.408Z,0.70
2022-09-09T22:33:39.741Z,0.90
2022-09-09T22:36:06.359Z,0.70
2022-09-09T22:38:36.275Z,0.87
2022-09-09T22:41:05.118Z,0.80
2022-09-09T22:43:33.329Z,0.63
2022-09-09T22:46:00.610Z,0.70
2022-09-09T22:48:28.520Z,1.03
2022-09-09T22:51:03.299Z,0.80
2022-09-09T22:53:32.551Z,0.70
2022-09-09T22:56:00.742Z,0.80
2022-09-09T22:58:29.066Z,0.80
2022-09-09T23:00:58.535Z,1.20
2022-09-09T23:03:29.175Z,0.80
2022-09-09T23:05:57.494Z,0.80
2022-09-09T23:08:25.627Z,0.60
2022-09-09T23:10:55.334Z,0.70
2022-09-09T23:13:23.166Z,0.70
2022-09-09T23:15:49.981Z,0.70
2022-09-09T23:18:16.319Z,0.90
2022-09-09T23:20:43.044Z,1.00
2022-09-09T23:23:11.452Z,1.00
2022-09-09T23:25:38.032Z,0.90
2022-09-09T23:28:04.693Z,0.90
2022-09-09T23:30:31.006Z,0.80
2022-09-09T23:32:57.595Z,0.80
2022-09-09T23:35:23.950Z,0.87
2022-09-09T23:37:50.242Z,0.80
2022-09-09T23:40:16.586Z,0.80
2022-09-09T23:42:43.291Z,1.23
2022-09-09T23:45:10.395Z,0.90
2022-09-09T23:47:36.682Z,1.10
2022-09-09T23:50:03.177Z,1.00
2022-09-09T23:52:29.791Z,1.10
2022-09-09T23:54:56.387Z,1.10
2022-09-09T23:57:22.667Z,1.10
2022-09-09T23:59:48.992Z,1.47
